KMDT/MDT METAR and TAF weather

Enter ICAO airport designator
Station Type Date Time Source
KMDT METAR 2021/05/14 13:56 UTC NOAA

KMDT 141356Z 29007KT 10SM CLR 17/04 A3028 RMK AO2 SLP253 T01720039


Station Type Date Time Source
KMDT Decoded METAR 2021/05/14 13:56 UTC NOAA

HARRISBURG INTERNATIONAL AIRPORT, PA, United States (KMDT) 40-12N 076-46W 95M
May 14, 2021 - 09:56 AM EDT / 2021.05.14 1356 UTC
Wind: from the WNW (290 degrees) at 8 MPH (7 KT):0
Visibility: 10 mile(s):0
Sky conditions: clear
Temperature: 63.0 F (17.2 C)
Dew Point: 39.0 F (3.9 C)
Relative Humidity: 41%
Pressure (altimeter): 30.28 in. Hg (1025 hPa)
ob: KMDT 141356Z 29007KT 10SM CLR 17/04 A3028 RMK AO2 SLP253 T01720039
cycle: 14

Station Type Date Time Source
KMDT TAF 2021/05/14 14:54 UTC NOAA

TAF
AMD KMDT 141351Z 1414/1512 30007KT P6SM SKC
FM150000 00000KT P6SM SKC

Example: see airport list